Hurlburt Field
KHRT : now visible

Airfield :











YOU CAN JOIN US ON...

 
LOGIN :

Register | Disclaimer

   EN    FR    IT 

 









Legend :    VFR   Marginal VFR   IFR   Intensive IFR   Very Intensive IFR
Visi :
Ceiling :
>= 8 km
>= 3000ft
5 to 8 km
1000 to 3000 ft
1500m to 5 km
500 to 1000 ft
800 to 1500m
200 to 500 ft
< 800m
< 200 ft
Symbols :   Thunderstorms  Fog  Heavy snow  Heavy precipitations  Wind > 20 kt






- Airport Elevation : 38 ft


KHRT - Hurlburt Field

CURRENT METAR :
  • 061855Z AUTO 19009KT 10SM CLR 19/M02 A3016 RMK AO2 SLP215 T01921024 $

TAF TAF KHRT
Valid from the 06 at 18:00 until the 08 at 00:00 UTC


061755Z 0618/0800 01009KT 9999 SKC QNH3017INS
BECMG 0702/0703 10006KT 8000 BR FEW020 QNH3029INS
BECMG 0714/0715 12012KT 9999 NSW SCT030 QNH3029INS TX20/0620Z TN11/0712Z
KZJX FIR / North America



MET'MAP, your aeronautical weather chart ! - Copyright ORBIFLY December 2007 - Disclaimer

ORBIFLY MET'MAP TEAM :

Programming & Development : Alexandra Zaïnal
Original concept : Baudouin d'Aumeries
Technical & hardware support : Manuel Goepfert
Assistance : Marc-Olivier Méhu




SOURCES & CREDITS :

   NOAA       Earth
Advisory